LDRI/RJK METAR and TAF weather

Enter ICAO airport designator
Station Type Date Time Source
LDRI METAR 2021/01/22 06:30 UTC NOAA

LDRI 220630Z 16011KT 9999 -RA BKN030 11/10 Q1008


Station Type Date Time Source
LDRI Decoded METAR 2021/01/22 06:30 UTC NOAA

Rijeka / Omisalj, Croatia (LDRI) 45-13N 014-35E
Jan 22, 2021 - 01:30 AM EST / 2021.01.22 0630 UTC
Wind: from the SSE (160 degrees) at 13 MPH (11 KT):0
Visibility: greater than 7 mile(s):0
Sky conditions: mostly cloudy
Weather: light rain
Temperature: 51 F (11 C)
Dew Point: 50 F (10 C)
Relative Humidity: 93%
Pressure (altimeter): 29.77 in. Hg (1008 hPa)
ob: LDRI 220630Z 16011KT 9999 -RA BKN030 11/10 Q1008
cycle: 6

Station Type Date Time Source
LDRI TAF 2021/01/22 06:30 UTC NOAA

TAF
AMD LDRI 220527Z 2206/2306 15012KT 9999 BKN030 TX13/2212Z TN10/2206Z PROB40
TEMPO 2207/2306 SHRA SCT020TCU BKN025
TEMPO 2218/2305 16015G25KT

Example: see airport list